sensor_id;sensor_type;location;lat;lon;timestamp;temperature;humidity
17571;DHT22;8903;52.220;20.978;2023-07-20T00:01:54;19.20;99.90
17571;DHT22;8903;52.220;20.978;2023-07-20T00:04:20;19.20;99.90
17571;DHT22;8903;52.220;20.978;2023-07-20T00:06:47;19.20;99.90
17571;DHT22;8903;52.220;20.978;2023-07-20T00:09:16;19.20;99.90
17571;DHT22;8903;52.220;20.978;2023-07-20T00:11:49;19.20;99.90
17571;DHT22;8903;52.220;20.978;2023-07-20T00:14:17;19.30;99.90
17571;DHT22;8903;52.220;20.978;2023-07-20T00:16:45;19.30;99.90
17571;DHT22;8903;52.220;20.978;2023-07-20T00:19:12;19.30;99.90
17571;DHT22;8903;52.220;20.978;2023-07-20T00:21:39;19.30;99.90
17571;DHT22;8903;52.220;20.978;2023-07-20T00:24:08;19.30;99.90
17571;DHT22;8903;52.220;20.978;2023-07-20T00:26:36;19.30;99.90
17571;DHT22;8903;52.220;20.978;2023-07-20T00:29:04;19.30;99.90
17571;DHT22;8903;52.220;20.978;2023-07-20T00:31:31;19.40;99.90
17571;DHT22;8903;52.220;20.978;2023-07-20T00:33:58;19.30;99.90
17571;DHT22;8903;52.220;20.978;2023-07-20T00:36:25;19.30;99.90
17571;DHT22;8903;52.220;20.978;2023-07-20T00:38:52;19.30;99.90
17571;DHT22;8903;52.220;20.978;2023-07-20T00:41:18;19.20;99.90
17571;DHT22;8903;52.220;20.978;2023-07-20T00:43:47;19.20;99.90
17571;DHT22;8903;52.220;20.978;2023-07-20T00:46:14;19.20;99.90
17571;DHT22;8903;52.220;20.978;2023-07-20T00:48:41;19.20;99.90
17571;DHT22;8903;52.220;20.978;2023-07-20T00:51:09;19.20;99.90
17571;DHT22;8903;52.220;20.978;2023-07-20T00:53:37;19.10;99.90
17571;DHT22;8903;52.220;20.978;2023-07-20T00:56:04;19.10;99.90
17571;DHT22;8903;52.220;20.978;2023-07-20T00:58:35;19.10;99.90
17571;DHT22;8903;52.220;20.978;2023-07-20T01:01:03;19.00;99.90
17571;DHT22;8903;52.220;20.978;2023-07-20T01:03:30;19.00;99.90
17571;DHT22;8903;52.220;20.978;2023-07-20T01:06:04;19.00;99.90
17571;DHT22;8903;52.220;20.978;2023-07-20T01:08:42;19.00;99.90
17571;DHT22;8903;52.220;20.978;2023-07-20T01:11:14;19.00;99.90
17571;DHT22;8903;52.220;20.978;2023-07-20T01:13:43;19.00;99.90
17571;DHT22;8903;52.220;20.978;2023-07-20T01:16:12;19.00;99.90
17571;DHT22;8903;52.220;20.978;2023-07-20T01:18:39;19.00;99.90
17571;DHT22;8903;52.220;20.978;2023-07-20T01:21:09;19.00;99.90
17571;DHT22;8903;52.220;20.978;2023-07-20T01:24:13;18.90;99.90
17571;DHT22;8903;52.220;20.978;2023-07-20T01:30:08;18.90;99.90
17571;DHT22;8903;52.220;20.978;2023-07-20T01:32:40;18.90;99.90
17571;DHT22;8903;52.220;20.978;2023-07-20T01:35:10;18.90;99.90
17571;DHT22;8903;52.220;20.978;2023-07-20T01:37:41;18.80;99.90
17571;DHT22;8903;52.220;20.978;2023-07-20T01:40:10;18.80;99.90
17571;DHT22;8903;52.220;20.978;2023-07-20T01:42:37;18.70;99.90
17571;DHT22;8903;52.220;20.978;2023-07-20T01:45:05;18.70;99.90
17571;DHT22;8903;52.220;20.978;2023-07-20T01:47:32;18.70;99.90
17571;DHT22;8903;52.220;20.978;2023-07-20T01:50:00;18.70;99.90
17571;DHT22;8903;52.220;20.978;2023-07-20T01:52:27;18.70;99.90
17571;DHT22;8903;52.220;20.978;2023-07-20T01:54:56;18.70;99.90
17571;DHT22;8903;52.220;20.978;2023-07-20T01:57:23;18.60;99.90
17571;DHT22;8903;52.220;20.978;2023-07-20T01:59:51;18.60;99.90
17571;DHT22;8903;52.220;20.978;2023-07-20T02:02:18;18.60;99.90
17571;DHT22;8903;52.220;20.978;2023-07-20T02:04:46;18.50;99.90
17571;DHT22;8903;52.220;20.978;2023-07-20T02:07:15;18.50;99.90
17571;DHT22;8903;52.220;20.978;2023-07-20T02:09:42;18.50;99.90
17571;DHT22;8903;52.220;20.978;2023-07-20T02:12:09;18.40;99.90
17571;DHT22;8903;52.220;20.978;2023-07-20T02:14:36;18.40;99.90
17571;DHT22;8903;52.220;20.978;2023-07-20T02:17:03;18.50;99.90
17571;DHT22;8903;52.220;20.978;2023-07-20T02:19:31;18.50;99.90
17571;DHT22;8903;52.220;20.978;2023-07-20T02:21:58;18.50;99.90
17571;DHT22;8903;52.220;20.978;2023-07-20T02:24:26;18.60;99.90
17571;DHT22;8903;52.220;20.978;2023-07-20T02:26:53;18.60;99.90
17571;DHT22;8903;52.220;20.978;2023-07-20T02:29:20;18.60;99.90
17571;DHT22;8903;52.220;20.978;2023-07-20T02:31:47;18.60;99.90
17571;DHT22;8903;52.220;20.978;2023-07-20T02:34:14;18.60;99.90
17571;DHT22;8903;52.220;20.978;2023-07-20T02:36:41;18.50;99.90
17571;DHT22;8903;52.220;20.978;2023-07-20T02:39:08;18.50;99.90
17571;DHT22;8903;52.220;20.978;2023-07-20T02:41:37;18.30;99.90
17571;DHT22;8903;52.220;20.978;2023-07-20T02:44:04;18.30;99.90
17571;DHT22;8903;52.220;20.978;2023-07-20T02:46:32;18.30;99.90
17571;DHT22;8903;52.220;20.978;2023-07-20T02:49:01;18.30;99.90
17571;DHT22;8903;52.220;20.978;2023-07-20T02:51:28;18.30;99.90
17571;DHT22;8903;52.220;20.978;2023-07-20T02:53:55;18.30;99.90
17571;DHT22;8903;52.220;20.978;2023-07-20T02:56:22;18.30;99.90
17571;DHT22;8903;52.220;20.978;2023-07-20T02:58:51;18.30;99.90
17571;DHT22;8903;52.220;20.978;2023-07-20T03:01:18;18.30;99.90
17571;DHT22;8903;52.220;20.978;2023-07-20T03:03:45;18.20;99.90
17571;DHT22;8903;52.220;20.978;2023-07-20T03:06:13;18.20;99.90
17571;DHT22;8903;52.220;20.978;2023-07-20T03:08:40;18.10;99.90
17571;DHT22;8903;52.220;20.978;2023-07-20T03:11:13;18.10;99.90
17571;DHT22;8903;52.220;20.978;2023-07-20T03:13:40;18.10;99.90
17571;DHT22;8903;52.220;20.978;2023-07-20T03:16:10;18.00;99.90
17571;DHT22;8903;52.220;20.978;2023-07-20T03:18:38;18.10;99.90
17571;DHT22;8903;52.220;20.978;2023-07-20T03:21:07;18.10;99.90
17571;DHT22;8903;52.220;20.978;2023-07-20T03:23:37;18.10;99.90
17571;DHT22;8903;52.220;20.978;2023-07-20T03:26:04;18.00;99.90
17571;DHT22;8903;52.220;20.978;2023-07-20T03:28:34;18.00;99.90
17571;DHT22;8903;52.220;20.978;2023-07-20T03:31:01;17.90;99.90
17571;DHT22;8903;52.220;20.978;2023-07-20T03:33:32;18.00;99.90
17571;DHT22;8903;52.220;20.978;2023-07-20T03:35:59;17.90;99.90
17571;DHT22;8903;52.220;20.978;2023-07-20T03:38:26;17.80;99.90
17571;DHT22;8903;52.220;20.978;2023-07-20T03:40:55;17.70;99.90
17571;DHT22;8903;52.220;20.978;2023-07-20T03:43:23;17.60;99.90
17571;DHT22;8903;52.220;20.978;2023-07-20T03:45:50;17.60;99.90
17571;DHT22;8903;52.220;20.978;2023-07-20T03:48:19;17.40;99.90
17571;DHT22;8903;52.220;20.978;2023-07-20T03:50:49;17.50;99.90
17571;DHT22;8903;52.220;20.978;2023-07-20T03:53:16;17.40;99.90
17571;DHT22;8903;52.220;20.978;2023-07-20T03:55:44;17.10;99.90
17571;DHT22;8903;52.220;20.978;2023-07-20T03:58:12;16.80;99.90
17571;DHT22;8903;52.220;20.978;2023-07-20T04:00:39;16.50;99.90
17571;DHT22;8903;52.220;20.978;2023-07-20T04:03:06;16.30;99.90
17571;DHT22;8903;52.220;20.978;2023-07-20T04:05:33;16.30;99.90
17571;DHT22;8903;52.220;20.978;2023-07-20T04:08:02;16.20;99.90
17571;DHT22;8903;52.220;20.978;2023-07-20T04:10:29;15.90;99.90
17571;DHT22;8903;52.220;20.978;2023-07-20T04:12:56;15.70;99.90
17571;DHT22;8903;52.220;20.978;2023-07-20T04:15:23;15.70;99.90
17571;DHT22;8903;52.220;20.978;2023-07-20T04:17:50;15.60;99.90
17571;DHT22;8903;52.220;20.978;2023-07-20T04:20:17;15.60;99.90
17571;DHT22;8903;52.220;20.978;2023-07-20T04:22:44;15.50;99.90
17571;DHT22;8903;52.220;20.978;2023-07-20T04:25:15;15.40;99.90
17571;DHT22;8903;52.220;20.978;2023-07-20T04:27:42;15.40;99.90
17571;DHT22;8903;52.220;20.978;2023-07-20T04:30:10;15.50;99.90
17571;DHT22;8903;52.220;20.978;2023-07-20T04:32:37;15.50;99.90
17571;DHT22;8903;52.220;20.978;2023-07-20T04:35:18;15.60;99.90
17571;DHT22;8903;52.220;20.978;2023-07-20T04:37:47;15.60;99.90
17571;DHT22;8903;52.220;20.978;2023-07-20T04:40:19;15.60;99.90
17571;DHT22;8903;52.220;20.978;2023-07-20T04:42:46;15.70;99.90
17571;DHT22;8903;52.220;20.978;2023-07-20T04:45:13;15.70;99.90
17571;DHT22;8903;52.220;20.978;2023-07-20T04:47:40;15.80;99.90
17571;DHT22;8903;52.220;20.978;2023-07-20T04:50:07;15.80;99.90
17571;DHT22;8903;52.220;20.978;2023-07-20T04:52:34;15.90;99.90
17571;DHT22;8903;52.220;20.978;2023-07-20T04:55:01;15.90;99.90
17571;DHT22;8903;52.220;20.978;2023-07-20T04:57:31;16.00;99.90
17571;DHT22;8903;52.220;20.978;2023-07-20T04:59:59;16.10;99.90
17571;DHT22;8903;52.220;20.978;2023-07-20T05:02:26;16.10;99.90
17571;DHT22;8903;52.220;20.978;2023-07-20T05:04:53;16.20;99.90
17571;DHT22;8903;52.220;20.978;2023-07-20T05:07:20;16.20;99.90
17571;DHT22;8903;52.220;20.978;2023-07-20T05:09:49;16.20;99.90
17571;DHT22;8903;52.220;20.978;2023-07-20T05:12:16;16.20;99.90
17571;DHT22;8903;52.220;20.978;2023-07-20T05:14:44;16.20;99.90
17571;DHT22;8903;52.220;20.978;2023-07-20T05:17:11;16.20;99.90
17571;DHT22;8903;52.220;20.978;2023-07-20T05:19:39;16.20;99.90
17571;DHT22;8903;52.220;20.978;2023-07-20T05:22:06;16.30;99.90
17571;DHT22;8903;52.220;20.978;2023-07-20T05:24:33;16.30;99.90
17571;DHT22;8903;52.220;20.978;2023-07-20T05:27:00;16.30;99.90
17571;DHT22;8903;52.220;20.978;2023-07-20T05:29:27;16.30;99.90
17571;DHT22;8903;52.220;20.978;2023-07-20T05:31:55;16.40;99.90
17571;DHT22;8903;52.220;20.978;2023-07-20T05:34:22;16.40;99.90
17571;DHT22;8903;52.220;20.978;2023-07-20T05:36:49;16.40;99.90
17571;DHT22;8903;52.220;20.978;2023-07-20T05:39:17;16.50;99.90
17571;DHT22;8903;52.220;20.978;2023-07-20T05:41:44;16.60;99.90
17571;DHT22;8903;52.220;20.978;2023-07-20T05:44:12;16.70;99.90
17571;DHT22;8903;52.220;20.978;2023-07-20T05:46:39;16.70;99.90
17571;DHT22;8903;52.220;20.978;2023-07-20T05:49:07;16.80;99.90
17571;DHT22;8903;52.220;20.978;2023-07-20T05:51:34;16.80;99.90
17571;DHT22;8903;52.220;20.978;2023-07-20T05:54:02;16.70;99.90
17571;DHT22;8903;52.220;20.978;2023-07-20T05:56:29;16.70;99.90
17571;DHT22;8903;52.220;20.978;2023-07-20T05:58:56;16.80;99.90
17571;DHT22;8903;52.220;20.978;2023-07-20T06:01:23;16.80;99.90
17571;DHT22;8903;52.220;20.978;2023-07-20T06:03:52;16.80;99.90
17571;DHT22;8903;52.220;20.978;2023-07-20T06:06:20;16.80;99.90
17571;DHT22;8903;52.220;20.978;2023-07-20T06:08:48;16.90;99.90
17571;DHT22;8903;52.220;20.978;2023-07-20T06:11:15;17.00;99.90
17571;DHT22;8903;52.220;20.978;2023-07-20T06:13:42;17.10;99.90
17571;DHT22;8903;52.220;20.978;2023-07-20T06:16:10;17.10;99.90
17571;DHT22;8903;52.220;20.978;2023-07-20T06:18:36;17.10;99.90
17571;DHT22;8903;52.220;20.978;2023-07-20T06:21:04;17.10;99.90
17571;DHT22;8903;52.220;20.978;2023-07-20T06:23:32;17.00;99.90
17571;DHT22;8903;52.220;20.978;2023-07-20T06:25:59;17.10;99.90
17571;DHT22;8903;52.220;20.978;2023-07-20T06:28:26;17.10;99.90
17571;DHT22;8903;52.220;20.978;2023-07-20T06:31:00;17.10;99.90
17571;DHT22;8903;52.220;20.978;2023-07-20T06:33:27;17.00;99.90
17571;DHT22;8903;52.220;20.978;2023-07-20T06:35:54;17.00;99.90
17571;DHT22;8903;52.220;20.978;2023-07-20T06:38:22;17.00;99.90
17571;DHT22;8903;52.220;20.978;2023-07-20T06:40:51;17.10;99.90
17571;DHT22;8903;52.220;20.978;2023-07-20T06:43:18;17.10;99.90
17571;DHT22;8903;52.220;20.978;2023-07-20T06:45:51;17.20;99.90
17571;DHT22;8903;52.220;20.978;2023-07-20T06:48:19;17.10;99.90
17571;DHT22;8903;52.220;20.978;2023-07-20T06:50:46;17.20;99.90
17571;DHT22;8903;52.220;20.978;2023-07-20T06:53:13;17.10;99.90
17571;DHT22;8903;52.220;20.978;2023-07-20T06:55:42;17.10;99.90
17571;DHT22;8903;52.220;20.978;2023-07-20T06:58:11;17.20;99.90
17571;DHT22;8903;52.220;20.978;2023-07-20T07:00:38;17.20;99.90
17571;DHT22;8903;52.220;20.978;2023-07-20T07:03:05;17.30;99.90
17571;DHT22;8903;52.220;20.978;2023-07-20T07:05:36;17.30;99.90
17571;DHT22;8903;52.220;20.978;2023-07-20T07:08:03;17.20;99.90
17571;DHT22;8903;52.220;20.978;2023-07-20T07:10:31;17.30;99.90
17571;DHT22;8903;52.220;20.978;2023-07-20T07:12:58;17.40;99.90
17571;DHT22;8903;52.220;20.978;2023-07-20T07:15:27;17.40;99.90
17571;DHT22;8903;52.220;20.978;2023-07-20T07:17:54;17.30;99.90
17571;DHT22;8903;52.220;20.978;2023-07-20T07:20:21;17.30;99.90
17571;DHT22;8903;52.220;20.978;2023-07-20T07:22:50;17.30;99.90
17571;DHT22;8903;52.220;20.978;2023-07-20T07:25:18;17.30;99.90
17571;DHT22;8903;52.220;20.978;2023-07-20T07:27:46;17.30;99.90
17571;DHT22;8903;52.220;20.978;2023-07-20T07:30:13;17.30;99.90
17571;DHT22;8903;52.220;20.978;2023-07-20T07:32:42;17.40;99.90
17571;DHT22;8903;52.220;20.978;2023-07-20T07:35:09;17.40;99.90
17571;DHT22;8903;52.220;20.978;2023-07-20T07:37:36;17.50;99.90
17571;DHT22;8903;52.220;20.978;2023-07-20T07:40:04;17.50;99.90
17571;DHT22;8903;52.220;20.978;2023-07-20T07:42:32;17.50;99.90
17571;DHT22;8903;52.220;20.978;2023-07-20T07:44:59;17.50;99.90
17571;DHT22;8903;52.220;20.978;2023-07-20T07:47:26;17.50;99.90
17571;DHT22;8903;52.220;20.978;2023-07-20T07:49:54;17.50;99.90
17571;DHT22;8903;52.220;20.978;2023-07-20T07:52:21;17.40;99.90
17571;DHT22;8903;52.220;20.978;2023-07-20T07:54:48;17.30;99.90
17571;DHT22;8903;52.220;20.978;2023-07-20T07:57:15;17.20;99.90
17571;DHT22;8903;52.220;20.978;2023-07-20T07:59:42;17.10;99.90
17571;DHT22;8903;52.220;20.978;2023-07-20T08:02:09;16.90;99.90
17571;DHT22;8903;52.220;20.978;2023-07-20T08:04:36;16.80;99.90
17571;DHT22;8903;52.220;20.978;2023-07-20T08:07:06;16.70;99.90
17571;DHT22;8903;52.220;20.978;2023-07-20T08:09:33;16.70;99.90
17571;DHT22;8903;52.220;20.978;2023-07-20T08:12:00;16.50;99.90
17571;DHT22;8903;52.220;20.978;2023-07-20T08:14:27;16.30;99.90
17571;DHT22;8903;52.220;20.978;2023-07-20T08:16:54;16.20;99.90
17571;DHT22;8903;52.220;20.978;2023-07-20T08:19:21;16.20;99.90
17571;DHT22;8903;52.220;20.978;2023-07-20T08:21:49;16.10;99.90
17571;DHT22;8903;52.220;20.978;2023-07-20T08:24:17;16.10;99.90
17571;DHT22;8903;52.220;20.978;2023-07-20T08:26:44;16.20;99.90
17571;DHT22;8903;52.220;20.978;2023-07-20T08:29:11;16.20;99.90
17571;DHT22;8903;52.220;20.978;2023-07-20T08:31:38;16.00;99.90
17571;DHT22;8903;52.220;20.978;2023-07-20T08:34:05;16.00;99.90
17571;DHT22;8903;52.220;20.978;2023-07-20T08:36:32;15.80;99.90
17571;DHT22;8903;52.220;20.978;2023-07-20T08:38:59;15.80;99.90
17571;DHT22;8903;52.220;20.978;2023-07-20T08:41:30;15.90;99.90
17571;DHT22;8903;52.220;20.978;2023-07-20T08:43:57;15.90;99.90
17571;DHT22;8903;52.220;20.978;2023-07-20T08:46:26;16.00;99.90
17571;DHT22;8903;52.220;20.978;2023-07-20T08:48:55;16.20;99.90
17571;DHT22;8903;52.220;20.978;2023-07-20T08:51:23;16.30;99.90
17571;DHT22;8903;52.220;20.978;2023-07-20T08:53:52;16.40;99.90
17571;DHT22;8903;52.220;20.978;2023-07-20T08:56:20;16.50;99.90
17571;DHT22;8903;52.220;20.978;2023-07-20T08:58:49;16.50;99.90
17571;DHT22;8903;52.220;20.978;2023-07-20T09:01:17;16.50;99.90
17571;DHT22;8903;52.220;20.978;2023-07-20T09:03:45;16.60;99.90
17571;DHT22;8903;52.220;20.978;2023-07-20T09:06:12;16.60;99.90
17571;DHT22;8903;52.220;20.978;2023-07-20T09:08:39;16.50;99.90
17571;DHT22;8903;52.220;20.978;2023-07-20T09:11:07;16.30;99.90
17571;DHT22;8903;52.220;20.978;2023-07-20T09:13:34;16.30;99.90
17571;DHT22;8903;52.220;20.978;2023-07-20T09:16:03;16.40;99.90
17571;DHT22;8903;52.220;20.978;2023-07-20T09:18:31;16.50;99.90
17571;DHT22;8903;52.220;20.978;2023-07-20T09:21:01;16.50;99.90
17571;DHT22;8903;52.220;20.978;2023-07-20T09:23:32;16.60;99.90
17571;DHT22;8903;52.220;20.978;2023-07-20T09:26:00;16.70;99.90
17571;DHT22;8903;52.220;20.978;2023-07-20T09:28:27;16.80;99.90
17571;DHT22;8903;52.220;20.978;2023-07-20T09:30:55;16.70;99.90
17571;DHT22;8903;52.220;20.978;2023-07-20T09:33:24;16.80;99.90
17571;DHT22;8903;52.220;20.978;2023-07-20T09:35:51;17.00;99.90
17571;DHT22;8903;52.220;20.978;2023-07-20T09:38:18;17.20;99.90
17571;DHT22;8903;52.220;20.978;2023-07-20T09:40:46;17.40;99.90
17571;DHT22;8903;52.220;20.978;2023-07-20T09:43:15;17.50;99.90
17571;DHT22;8903;52.220;20.978;2023-07-20T09:45:43;17.40;99.90
17571;DHT22;8903;52.220;20.978;2023-07-20T09:48:10;17.50;99.90
17571;DHT22;8903;52.220;20.978;2023-07-20T09:50:48;17.70;99.90
17571;DHT22;8903;52.220;20.978;2023-07-20T09:53:17;17.90;99.90
17571;DHT22;8903;52.220;20.978;2023-07-20T09:55:44;18.00;99.90
17571;DHT22;8903;52.220;20.978;2023-07-20T09:58:12;18.20;99.90
17571;DHT22;8903;52.220;20.978;2023-07-20T10:00:40;18.20;99.90
17571;DHT22;8903;52.220;20.978;2023-07-20T10:03:16;18.00;99.90
17571;DHT22;8903;52.220;20.978;2023-07-20T10:05:48;18.00;99.90
17571;DHT22;8903;52.220;20.978;2023-07-20T10:08:17;18.10;99.90
17571;DHT22;8903;52.220;20.978;2023-07-20T10:10:46;18.10;99.90
17571;DHT22;8903;52.220;20.978;2023-07-20T10:13:17;18.20;99.90
17571;DHT22;8903;52.220;20.978;2023-07-20T10:15:48;18.20;99.90
17571;DHT22;8903;52.220;20.978;2023-07-20T10:18:25;18.30;99.90
17571;DHT22;8903;52.220;20.978;2023-07-20T10:20:57;18.30;99.90
17571;DHT22;8903;52.220;20.978;2023-07-20T10:23:26;18.10;99.90
17571;DHT22;8903;52.220;20.978;2023-07-20T10:25:55;18.00;99.90
17571;DHT22;8903;52.220;20.978;2023-07-20T10:28:23;17.90;99.90
17571;DHT22;8903;52.220;20.978;2023-07-20T10:30:51;17.80;99.90
17571;DHT22;8903;52.220;20.978;2023-07-20T10:33:18;17.70;99.90
17571;DHT22;8903;52.220;20.978;2023-07-20T10:35:53;17.80;99.90
17571;DHT22;8903;52.220;20.978;2023-07-20T10:38:38;17.90;99.90
17571;DHT22;8903;52.220;20.978;2023-07-20T10:41:16;18.20;99.90
17571;DHT22;8903;52.220;20.978;2023-07-20T10:43:43;18.30;99.90
17571;DHT22;8903;52.220;20.978;2023-07-20T10:46:11;18.50;99.90
17571;DHT22;8903;52.220;20.978;2023-07-20T10:48:59;18.70;99.90
17571;DHT22;8903;52.220;20.978;2023-07-20T10:51:27;18.90;99.90
17571;DHT22;8903;52.220;20.978;2023-07-20T10:53:56;19.10;99.90
17571;DHT22;8903;52.220;20.978;2023-07-20T10:56:26;19.10;99.90
17571;DHT22;8903;52.220;20.978;2023-07-20T10:58:58;18.90;99.90
17571;DHT22;8903;52.220;20.978;2023-07-20T11:01:28;19.00;99.90
17571;DHT22;8903;52.220;20.978;2023-07-20T11:03:57;19.10;99.90
17571;DHT22;8903;52.220;20.978;2023-07-20T11:06:32;19.20;99.90
17571;DHT22;8903;52.220;20.978;2023-07-20T11:09:09;19.30;99.90
17571;DHT22;8903;52.220;20.978;2023-07-20T11:11:40;19.60;99.90
17571;DHT22;8903;52.220;20.978;2023-07-20T11:14:09;19.90;99.90
17571;DHT22;8903;52.220;20.978;2023-07-20T11:16:39;20.10;99.90
17571;DHT22;8903;52.220;20.978;2023-07-20T11:19:13;20.30;99.90
17571;DHT22;8903;52.220;20.978;2023-07-20T11:21:43;20.50;99.90
17571;DHT22;8903;52.220;20.978;2023-07-20T11:24:11;20.60;99.90
17571;DHT22;8903;52.220;20.978;2023-07-20T11:26:47;20.90;99.90
17571;DHT22;8903;52.220;20.978;2023-07-20T11:29:15;21.00;99.90
17571;DHT22;8903;52.220;20.978;2023-07-20T11:31:43;20.70;99.90
17571;DHT22;8903;52.220;20.978;2023-07-20T11:34:12;20.60;99.90
17571;DHT22;8903;52.220;20.978;2023-07-20T11:36:40;21.00;99.90
17571;DHT22;8903;52.220;20.978;2023-07-20T11:39:10;21.00;99.90
17571;DHT22;8903;52.220;20.978;2023-07-20T11:41:38;20.80;99.90
17571;DHT22;8903;52.220;20.978;2023-07-20T11:44:06;20.40;99.90
17571;DHT22;8903;52.220;20.978;2023-07-20T11:46:34;20.70;99.90
17571;DHT22;8903;52.220;20.978;2023-07-20T11:49:03;20.70;99.90
17571;DHT22;8903;52.220;20.978;2023-07-20T11:51:31;20.90;99.90
17571;DHT22;8903;52.220;20.978;2023-07-20T11:53:58;21.10;99.90
17571;DHT22;8903;52.220;20.978;2023-07-20T11:56:27;21.40;99.90
17571;DHT22;8903;52.220;20.978;2023-07-20T11:58:55;21.70;99.90
17571;DHT22;8903;52.220;20.978;2023-07-20T12:01:25;22.00;99.90
17571;DHT22;8903;52.220;20.978;2023-07-20T12:03:55;22.50;99.90
17571;DHT22;8903;52.220;20.978;2023-07-20T12:06:23;22.50;99.90
17571;DHT22;8903;52.220;20.978;2023-07-20T12:08:53;22.70;99.90
17571;DHT22;8903;52.220;20.978;2023-07-20T12:11:32;22.60;99.90
17571;DHT22;8903;52.220;20.978;2023-07-20T12:14:00;22.70;99.90
17571;DHT22;8903;52.220;20.978;2023-07-20T12:16:27;23.00;99.90
17571;DHT22;8903;52.220;20.978;2023-07-20T12:18:59;23.10;99.90
17571;DHT22;8903;52.220;20.978;2023-07-20T12:21:27;23.30;99.90
17571;DHT22;8903;52.220;20.978;2023-07-20T12:23:56;23.50;99.90
17571;DHT22;8903;52.220;20.978;2023-07-20T12:26:24;23.70;99.90
17571;DHT22;8903;52.220;20.978;2023-07-20T12:28:52;23.80;99.90
17571;DHT22;8903;52.220;20.978;2023-07-20T12:31:19;23.70;99.90
17571;DHT22;8903;52.220;20.978;2023-07-20T12:33:47;23.10;99.90
17571;DHT22;8903;52.220;20.978;2023-07-20T12:36:14;22.70;99.90
17571;DHT22;8903;52.220;20.978;2023-07-20T12:38:41;22.20;99.90
17571;DHT22;8903;52.220;20.978;2023-07-20T12:41:10;22.40;99.90
17571;DHT22;8903;52.220;20.978;2023-07-20T12:43:39;22.60;99.90
17571;DHT22;8903;52.220;20.978;2023-07-20T12:46:08;22.70;99.90
17571;DHT22;8903;52.220;20.978;2023-07-20T12:48:36;23.00;99.90
17571;DHT22;8903;52.220;20.978;2023-07-20T12:51:06;23.10;99.90
17571;DHT22;8903;52.220;20.978;2023-07-20T12:53:33;23.00;99.90
17571;DHT22;8903;52.220;20.978;2023-07-20T12:56:00;23.00;99.90
17571;DHT22;8903;52.220;20.978;2023-07-20T12:58:27;22.80;99.90
17571;DHT22;8903;52.220;20.978;2023-07-20T13:00:54;22.60;99.90
17571;DHT22;8903;52.220;20.978;2023-07-20T13:03:23;22.50;99.90
17571;DHT22;8903;52.220;20.978;2023-07-20T13:05:50;22.30;99.90
17571;DHT22;8903;52.220;20.978;2023-07-20T13:08:17;22.20;99.90
17571;DHT22;8903;52.220;20.978;2023-07-20T13:10:45;21.90;99.90
17571;DHT22;8903;52.220;20.978;2023-07-20T13:13:12;22.00;99.90
17571;DHT22;8903;52.220;20.978;2023-07-20T13:15:43;22.00;99.90
17571;DHT22;8903;52.220;20.978;2023-07-20T13:18:12;22.20;99.90
17571;DHT22;8903;52.220;20.978;2023-07-20T13:20:40;22.30;99.90
17571;DHT22;8903;52.220;20.978;2023-07-20T13:23:07;22.40;99.90
17571;DHT22;8903;52.220;20.978;2023-07-20T13:25:34;22.20;99.90
17571;DHT22;8903;52.220;20.978;2023-07-20T13:28:01;22.10;99.90
17571;DHT22;8903;52.220;20.978;2023-07-20T13:30:28;22.20;99.90
17571;DHT22;8903;52.220;20.978;2023-07-20T13:32:55;22.50;99.90
17571;DHT22;8903;52.220;20.978;2023-07-20T13:35:23;22.70;99.90
17571;DHT22;8903;52.220;20.978;2023-07-20T13:37:51;22.70;99.90
17571;DHT22;8903;52.220;20.978;2023-07-20T13:40:18;22.60;99.90
17571;DHT22;8903;52.220;20.978;2023-07-20T13:42:45;22.50;99.90
17571;DHT22;8903;52.220;20.978;2023-07-20T13:45:12;22.40;99.90
17571;DHT22;8903;52.220;20.978;2023-07-20T13:47:39;22.30;99.90
17571;DHT22;8903;52.220;20.978;2023-07-20T13:50:06;22.20;99.90
17571;DHT22;8903;52.220;20.978;2023-07-20T13:52:33;22.10;99.90
17571;DHT22;8903;52.220;20.978;2023-07-20T13:55:03;21.90;99.90
17571;DHT22;8903;52.220;20.978;2023-07-20T13:57:30;21.80;99.90
17571;DHT22;8903;52.220;20.978;2023-07-20T13:59:57;21.70;99.90
17571;DHT22;8903;52.220;20.978;2023-07-20T14:02:25;21.60;99.90
17571;DHT22;8903;52.220;20.978;2023-07-20T14:04:52;21.60;99.90
17571;DHT22;8903;52.220;20.978;2023-07-20T14:07:21;21.50;99.90
17571;DHT22;8903;52.220;20.978;2023-07-20T14:09:48;21.50;99.90
17571;DHT22;8903;52.220;20.978;2023-07-20T14:12:16;21.40;99.90
17571;DHT22;8903;52.220;20.978;2023-07-20T14:14:43;21.40;99.90
17571;DHT22;8903;52.220;20.978;2023-07-20T14:17:10;21.20;99.90
17571;DHT22;8903;52.220;20.978;2023-07-20T14:19:38;21.10;99.90
17571;DHT22;8903;52.220;20.978;2023-07-20T14:22:05;21.10;99.90
17571;DHT22;8903;52.220;20.978;2023-07-20T14:24:32;21.00;99.90
17571;DHT22;8903;52.220;20.978;2023-07-20T14:26:59;21.00;99.90
17571;DHT22;8903;52.220;20.978;2023-07-20T14:29:28;20.90;99.90
17571;DHT22;8903;52.220;20.978;2023-07-20T14:31:57;20.80;99.90
17571;DHT22;8903;52.220;20.978;2023-07-20T14:34:24;20.60;99.90
17571;DHT22;8903;52.220;20.978;2023-07-20T14:36:51;20.40;99.90
17571;DHT22;8903;52.220;20.978;2023-07-20T14:39:19;20.40;99.90
17571;DHT22;8903;52.220;20.978;2023-07-20T14:41:46;20.30;99.90
17571;DHT22;8903;52.220;20.978;2023-07-20T14:44:13;20.30;99.90
17571;DHT22;8903;52.220;20.978;2023-07-20T14:46:42;20.30;99.90
17571;DHT22;8903;52.220;20.978;2023-07-20T14:49:08;20.40;99.90
17571;DHT22;8903;52.220;20.978;2023-07-20T14:51:36;20.40;99.90
17571;DHT22;8903;52.220;20.978;2023-07-20T14:54:09;20.60;99.90
17571;DHT22;8903;52.220;20.978;2023-07-20T14:56:38;20.50;99.90
17571;DHT22;8903;52.220;20.978;2023-07-20T14:59:05;20.40;99.90
17571;DHT22;8903;52.220;20.978;2023-07-20T15:01:32;20.50;99.90
17571;DHT22;8903;52.220;20.978;2023-07-20T15:04:00;20.60;99.90
17571;DHT22;8903;52.220;20.978;2023-07-20T15:06:28;20.80;99.90
17571;DHT22;8903;52.220;20.978;2023-07-20T15:08:56;21.10;99.90
17571;DHT22;8903;52.220;20.978;2023-07-20T15:11:23;21.10;99.90
17571;DHT22;8903;52.220;20.978;2023-07-20T15:13:50;21.00;99.90
17571;DHT22;8903;52.220;20.978;2023-07-20T15:16:17;21.20;99.90
17571;DHT22;8903;52.220;20.978;2023-07-20T15:18:44;21.30;99.90
17571;DHT22;8903;52.220;20.978;2023-07-20T15:21:12;21.30;99.90
17571;DHT22;8903;52.220;20.978;2023-07-20T15:23:39;21.80;99.90
17571;DHT22;8903;52.220;20.978;2023-07-20T15:26:07;22.00;99.90
17571;DHT22;8903;52.220;20.978;2023-07-20T15:28:34;22.20;99.90
17571;DHT22;8903;52.220;20.978;2023-07-20T15:31:02;22.40;99.90
17571;DHT22;8903;52.220;20.978;2023-07-20T15:33:29;22.00;99.90
17571;DHT22;8903;52.220;20.978;2023-07-20T15:35:56;21.90;99.90
17571;DHT22;8903;52.220;20.978;2023-07-20T15:38:25;21.70;99.90
17571;DHT22;8903;52.220;20.978;2023-07-20T15:40:52;21.70;99.90